createdAt,value
2018-11-02T00:01:32.266Z,58.20
2018-11-02T00:04:00.429Z,62.17
2018-11-02T00:06:28.825Z,61.73
2018-11-02T00:08:56.906Z,59.87
2018-11-02T00:11:24.782Z,66.93
2018-11-02T00:13:52.588Z,78.57
2018-11-02T00:16:20.140Z,66.40
2018-11-02T00:18:47.166Z,68.13
2018-11-02T00:21:13.928Z,60.50
2018-11-02T00:23:40.711Z,61.83
2018-11-02T00:26:07.482Z,63.03
2018-11-02T00:28:34.186Z,61.73
2018-11-02T00:31:01.917Z,70.50
2018-11-02T00:33:28.817Z,70.37
2018-11-02T00:35:55.611Z,66.33
2018-11-02T00:38:22.450Z,65.73
2018-11-02T00:40:50.017Z,75.23
2018-11-02T00:43:17.650Z,74.10
2018-11-02T00:45:45.104Z,79.20
2018-11-02T00:48:12.010Z,70.27
2018-11-02T00:50:39.464Z,88.17
2018-11-02T00:53:07.131Z,71.57
2018-11-02T00:55:34.030Z,78.10
2018-11-02T00:58:01.673Z,77.07
2018-11-02T01:00:28.635Z,73.83
2018-11-02T01:02:55.340Z,69.83
2018-11-02T01:05:22.952Z,67.20
2018-11-02T01:07:50.791Z,68.17
2018-11-02T01:10:17.470Z,64.47
2018-11-02T01:12:44.185Z,62.70
2018-11-02T01:15:11.109Z,65.93
2018-11-02T01:17:37.852Z,63.43
2018-11-02T01:20:04.799Z,66.63
2018-11-02T01:22:32.719Z,67.77
2018-11-02T01:25:00.255Z,65.67
2018-11-02T01:27:27.164Z,58.27
2018-11-02T01:29:54.108Z,63.70
2018-11-02T01:32:20.944Z,60.80
2018-11-02T01:34:47.718Z,61.53
2018-11-02T01:37:15.358Z,58.23
2018-11-02T01:39:42.050Z,59.13
2018-11-02T01:42:08.913Z,63.70
2018-11-02T01:44:35.830Z,61.07
2018-11-02T01:47:02.703Z,53.10
2018-11-02T01:49:29.476Z,49.43
2018-11-02T01:51:56.226Z,49.53
2018-11-02T01:54:23.481Z,53.23
2018-11-02T01:56:50.321Z,52.00
2018-11-02T01:59:17.120Z,49.97
2018-11-02T02:01:44.716Z,60.23
2018-11-02T02:04:11.621Z,56.93
2018-11-02T02:06:40.689Z,59.10
2018-11-02T02:09:08.709Z,63.23
2018-11-02T02:11:35.884Z,59.47
2018-11-02T02:14:03.170Z,61.60
2018-11-02T02:16:30.038Z,65.70
2018-11-02T02:18:57.015Z,67.53
2018-11-02T02:21:23.933Z,63.83
2018-11-02T02:23:50.779Z,60.77
2018-11-02T02:26:17.704Z,62.50
2018-11-02T02:28:44.847Z,63.77
2018-11-02T02:31:11.578Z,60.37
2018-11-02T02:33:39.187Z,69.63
2018-11-02T02:36:06.269Z,62.37
2018-11-02T02:38:34.653Z,69.40
2018-11-02T02:41:01.569Z,60.40
2018-11-02T02:43:29.241Z,58.77
2018-11-02T02:45:56.914Z,59.33
2018-11-02T02:48:23.833Z,52.30
2018-11-02T02:50:50.905Z,50.63
2018-11-02T02:53:18.728Z,46.53
2018-11-02T02:55:46.939Z,58.97
2018-11-02T02:58:14.908Z,52.73
2018-11-02T03:00:42.742Z,49.63
2018-11-02T03:03:10.257Z,50.53
2018-11-02T03:05:37.905Z,62.57
2018-11-02T03:08:04.909Z,62.57
2018-11-02T03:10:31.873Z,57.73
2018-11-02T03:12:58.686Z,61.03
2018-11-02T03:15:25.425Z,52.63
2018-11-02T03:17:52.503Z,56.67
2018-11-02T03:20:19.265Z,59.30
2018-11-02T03:22:46.039Z,61.70
2018-11-02T03:25:13.025Z,59.80
2018-11-02T03:27:39.791Z,54.50
2018-11-02T03:30:06.728Z,63.47
2018-11-02T03:32:33.578Z,53.47
2018-11-02T03:35:01.129Z,61.33
2018-11-02T03:37:28.288Z,59.67
2018-11-02T03:39:55.034Z,59.53
2018-11-02T03:42:22.759Z,58.37
2018-11-02T03:44:51.249Z,67.73
2018-11-02T03:47:18.161Z,59.07
2018-11-02T03:49:45.569Z,59.30
2018-11-02T03:52:12.599Z,60.37
2018-11-02T03:54:39.255Z,52.13
2018-11-02T03:57:05.944Z,66.43
2018-11-02T03:59:32.775Z,61.67
2018-11-02T04:02:00.204Z,55.80
2018-11-02T04:04:26.954Z,60.50
2018-11-02T04:06:53.769Z,59.50
2018-11-02T04:09:20.466Z,62.93
2018-11-02T04:11:47.888Z,54.50
2018-11-02T04:14:14.734Z,56.97
2018-11-02T04:16:41.407Z,59.40
2018-11-02T04:19:08.855Z,49.90
2018-11-02T04:21:36.343Z,57.93
2018-11-02T04:24:03.057Z,56.33
2018-11-02T04:26:29.745Z,57.27
2018-11-02T04:28:56.627Z,61.30
2018-11-02T04:31:23.331Z,65.07
2018-11-02T04:33:50.034Z,75.90
2018-11-02T04:36:16.863Z,59.53
2018-11-02T04:38:44.274Z,62.47
2018-11-02T04:41:10.951Z,61.27
2018-11-02T04:43:38.534Z,63.63
2018-11-02T04:46:05.265Z,57.27
2018-11-02T04:48:32.007Z,53.00
2018-11-02T04:50:58.885Z,56.87
2018-11-02T04:53:26.231Z,56.90
2018-11-02T04:55:52.892Z,59.57
2018-11-02T04:58:19.612Z,55.87
2018-11-02T05:00:46.329Z,53.50
2018-11-02T05:03:13.016Z,57.70
2018-11-02T05:05:39.714Z,60.23
2018-11-02T05:08:06.441Z,54.40
2018-11-02T05:10:33.127Z,57.40
2018-11-02T05:12:59.982Z,50.43
2018-11-02T05:15:26.620Z,51.90
2018-11-02T05:17:53.271Z,45.03
2018-11-02T05:20:20.046Z,47.60
2018-11-02T05:22:46.759Z,45.03
2018-11-02T05:25:13.427Z,43.83
2018-11-02T05:27:40.177Z,51.73
2018-11-02T05:30:07.204Z,45.83
2018-11-02T05:32:33.912Z,47.83
2018-11-02T05:35:00.639Z,48.23
2018-11-02T05:37:27.380Z,48.97
2018-11-02T05:39:54.071Z,46.13
2018-11-02T05:42:20.802Z,47.47
2018-11-02T05:44:48.282Z,40.47
2018-11-02T05:47:15.005Z,41.10
2018-11-02T05:49:42.406Z,37.27
2018-11-02T05:52:09.268Z,44.33
2018-11-02T05:54:35.948Z,38.90
2018-11-02T05:57:02.618Z,39.50
2018-11-02T05:59:30.214Z,41.70
2018-11-02T06:01:56.914Z,44.07
2018-11-02T06:04:23.580Z,43.23
2018-11-02T06:06:54.011Z,39.50
2018-11-02T06:09:21.427Z,37.27
2018-11-02T06:11:48.295Z,44.47
2018-11-02T06:14:14.920Z,38.90
2018-11-02T06:16:41.591Z,41.40
2018-11-02T06:19:09.150Z,39.27
2018-11-02T06:21:35.836Z,41.50
2018-11-02T06:24:02.580Z,33.53
2018-11-02T06:26:29.266Z,31.83
2018-11-02T06:28:56.022Z,36.13
2018-11-02T06:31:22.795Z,35.53
2018-11-02T06:33:49.515Z,35.10
2018-11-02T06:36:16.933Z,42.03
2018-11-02T06:38:43.702Z,42.93
2018-11-02T06:41:11.140Z,29.73
2018-11-02T06:43:39.469Z,31.30
2018-11-02T06:46:06.668Z,33.43
2018-11-02T06:48:33.339Z,33.47
2018-11-02T06:51:00.873Z,28.90
2018-11-02T06:53:28.286Z,29.40
2018-11-02T06:55:54.950Z,27.37
2018-11-02T06:58:21.609Z,30.13
2018-11-02T07:00:48.434Z,28.13
2018-11-02T07:03:15.114Z,24.37
2018-11-02T07:05:42.546Z,27.53
2018-11-02T07:08:09.695Z,25.90
2018-11-02T07:10:36.296Z,27.33
2018-11-02T07:13:03.062Z,22.97
2018-11-02T07:15:29.820Z,24.37
2018-11-02T07:17:57.324Z,32.07
2018-11-02T07:23:35.813Z,36.93
2018-11-02T07:26:02.867Z,32.40
2018-11-02T07:28:29.850Z,26.53
2018-11-02T07:34:07.085Z,30.07
2018-11-02T07:36:33.938Z,32.23
2018-11-02T07:39:19.120Z,28.73
2018-11-02T07:41:45.945Z,32.23
2018-11-02T07:44:12.668Z,33.27
2018-11-02T07:46:39.420Z,31.57
2018-11-02T07:49:06.349Z,31.60
2018-11-02T07:51:33.102Z,32.83
2018-11-02T07:53:59.862Z,33.07
2018-11-02T07:56:26.711Z,29.63
2018-11-02T07:58:54.258Z,27.93
2018-11-02T08:01:21.785Z,32.70
2018-11-02T08:03:48.665Z,30.80
2018-11-02T08:06:15.507Z,28.60
2018-11-02T08:08:42.254Z,31.80
2018-11-02T08:11:10.025Z,30.23
2018-11-02T08:13:37.109Z,30.90
2018-11-02T08:16:05.073Z,33.43
2018-11-02T08:18:31.976Z,30.07
2018-11-02T08:20:58.715Z,31.60
2018-11-02T08:23:25.473Z,37.10
2018-11-02T08:25:52.246Z,34.70
2018-11-02T08:28:19.030Z,37.23
2018-11-02T08:30:46.240Z,34.17
2018-11-02T08:33:13.709Z,37.10
2018-11-02T08:35:40.474Z,34.43
2018-11-02T08:38:07.291Z,39.33
2018-11-02T08:40:34.387Z,34.40
2018-11-02T08:43:01.222Z,40.83
2018-11-02T08:45:28.012Z,34.47
2018-11-02T08:47:54.759Z,31.33
2018-11-02T08:50:22.261Z,33.97
2018-11-02T08:52:49.101Z,28.80
2018-11-02T08:55:15.840Z,32.30
2018-11-02T08:57:42.640Z,35.07
2018-11-02T09:00:09.541Z,33.70
2018-11-02T09:02:36.383Z,30.43
2018-11-02T09:05:03.510Z,35.67
2018-11-02T09:07:30.277Z,32.43
2018-11-02T09:09:57.028Z,30.20
2018-11-02T09:12:23.803Z,33.83
2018-11-02T09:14:50.518Z,37.77
2018-11-02T09:17:17.969Z,38.03
2018-11-02T09:19:44.817Z,32.30
2018-11-02T09:22:11.459Z,31.50
2018-11-02T09:24:38.888Z,35.80
2018-11-02T09:27:05.595Z,34.73
2018-11-02T09:29:33.028Z,33.60
2018-11-02T09:31:59.685Z,32.10
2018-11-02T09:34:26.365Z,30.17
2018-11-02T09:36:53.838Z,32.63
2018-11-02T09:39:21.418Z,35.63
2018-11-02T09:41:48.135Z,35.57
2018-11-02T09:44:15.569Z,32.43
2018-11-02T09:46:42.313Z,31.27
2018-11-02T09:49:09.022Z,31.63
2018-11-02T09:51:35.808Z,33.17
2018-11-02T09:54:02.571Z,30.57
2018-11-02T09:56:29.977Z,25.43
2018-11-02T09:58:56.684Z,29.07
2018-11-02T10:01:23.409Z,33.97
2018-11-02T10:03:50.090Z,26.90
2018-11-02T10:06:16.784Z,26.77
2018-11-02T10:08:43.685Z,27.23
2018-11-02T10:11:11.158Z,28.57
2018-11-02T10:13:37.857Z,29.20
2018-11-02T10:16:04.686Z,30.53
2018-11-02T10:18:31.420Z,33.13
2018-11-02T10:20:58.100Z,34.77
2018-11-02T10:23:25.644Z,35.43
2018-11-02T10:25:52.371Z,34.03
2018-11-02T10:28:19.208Z,30.47
2018-11-02T10:30:45.975Z,33.57
2018-11-02T10:33:12.735Z,36.77
2018-11-02T10:35:40.339Z,28.40
2018-11-02T10:38:07.016Z,31.30
2018-11-02T10:40:33.731Z,30.37
2018-11-02T10:43:00.579Z,29.30
2018-11-02T10:45:27.393Z,32.33
2018-11-02T10:47:54.188Z,32.47
2018-11-02T10:50:21.536Z,33.80
2018-11-02T10:52:48.240Z,30.63
2018-11-02T10:55:15.009Z,30.60
2018-11-02T10:57:41.673Z,35.17
2018-11-02T11:00:08.464Z,30.93
2018-11-02T11:02:36.054Z,29.50
2018-11-02T11:05:02.793Z,28.97
2018-11-02T11:07:29.511Z,34.83
2018-11-02T11:09:56.331Z,32.43
2018-11-02T11:12:23.097Z,31.83
2018-11-02T11:14:50.725Z,33.20
2018-11-02T11:17:18.265Z,30.87
2018-11-02T11:19:44.975Z,28.47
2018-11-02T11:22:11.678Z,32.93
2018-11-02T11:24:38.560Z,33.50
2018-11-02T11:27:05.272Z,31.27
2018-11-02T11:29:32.068Z,37.20
2018-11-02T11:31:59.677Z,40.17
2018-11-02T11:34:26.771Z,29.37
2018-11-02T11:36:53.650Z,36.10
2018-11-02T11:39:20.355Z,35.93
2018-11-02T11:41:47.048Z,35.23
2018-11-02T11:44:13.954Z,33.83
2018-11-02T11:46:41.421Z,38.70
2018-11-02T11:49:08.898Z,43.77
2018-11-02T11:51:36.499Z,38.53
2018-11-02T11:54:03.227Z,34.13
2018-11-02T11:56:29.921Z,36.93
2018-11-02T11:58:57.348Z,32.37
2018-11-02T12:01:24.040Z,39.47
2018-11-02T12:03:50.884Z,34.20
2018-11-02T12:06:17.576Z,32.60
2018-11-02T12:08:44.296Z,34.47
2018-11-02T12:11:11.138Z,37.40
2018-11-02T12:13:37.809Z,29.73
2018-11-02T12:16:05.335Z,37.10
2018-11-02T12:18:32.167Z,41.90
2018-11-02T12:20:58.853Z,35.63
2018-11-02T12:23:26.318Z,35.03
2018-11-02T12:25:53.764Z,35.23
2018-11-02T12:28:20.533Z,34.77
2018-11-02T12:30:47.395Z,33.30
2018-11-02T12:33:14.054Z,33.83
2018-11-02T12:35:40.767Z,31.53
2018-11-02T12:38:07.630Z,33.20
2018-11-02T12:40:34.322Z,34.37
2018-11-02T12:43:01.722Z,34.40
2018-11-02T12:45:28.874Z,36.70
2018-11-02T12:47:55.638Z,35.87
2018-11-02T12:50:23.159Z,32.23
2018-11-02T12:52:49.893Z,32.00
2018-11-02T12:55:16.594Z,32.37
2018-11-02T12:57:44.015Z,28.93
2018-11-02T13:00:10.900Z,30.27
2018-11-02T13:02:37.573Z,33.50
2018-11-02T13:05:04.283Z,33.97
2018-11-02T13:07:31.761Z,32.57
2018-11-02T13:09:58.423Z,33.63
2018-11-02T13:12:25.154Z,31.93
2018-11-02T13:14:51.919Z,32.47
2018-11-02T13:17:18.591Z,29.93
2018-11-02T13:19:46.001Z,29.20
2018-11-02T13:22:12.889Z,33.10
2018-11-02T13:24:39.539Z,27.60
2018-11-02T13:27:07.007Z,29.00
2018-11-02T13:29:34.174Z,30.83
2018-11-02T13:32:00.875Z,26.77
2018-11-02T13:34:28.589Z,24.40
2018-11-02T13:36:55.378Z,26.73
2018-11-02T13:39:21.999Z,22.47
2018-11-02T13:41:48.867Z,21.73
2018-11-02T13:44:16.275Z,25.87
2018-11-02T13:46:43.738Z,26.47
2018-11-02T13:49:10.589Z,26.23
2018-11-02T13:51:38.058Z,28.20
2018-11-02T13:54:04.748Z,24.67
2018-11-02T13:56:31.599Z,27.63
2018-11-02T13:58:58.261Z,26.97
2018-11-02T14:01:31.733Z,24.17
2018-11-02T14:03:58.580Z,25.00
2018-11-02T14:06:25.246Z,23.83
2018-11-02T14:08:51.936Z,28.60
2018-11-02T14:11:19.413Z,26.50
2018-11-02T14:13:46.974Z,29.43
2018-11-02T14:16:13.674Z,23.53
2018-11-02T14:18:41.114Z,24.03
2018-11-02T14:21:07.939Z,23.60
2018-11-02T14:23:34.592Z,24.63
2018-11-02T14:26:01.310Z,23.40
2018-11-02T14:28:28.025Z,23.23
2018-11-02T14:30:54.708Z,23.03
2018-11-02T14:33:21.402Z,22.67
2018-11-02T14:35:48.143Z,24.97
2018-11-02T14:38:15.358Z,26.07
2018-11-02T14:40:42.805Z,21.27
2018-11-02T14:43:09.637Z,28.90
2018-11-02T14:45:36.294Z,23.83
2018-11-02T14:48:03.048Z,23.83
2018-11-02T14:50:30.706Z,23.63
2018-11-02T14:52:58.146Z,22.47
2018-11-02T14:55:25.707Z,21.33
2018-11-02T14:57:52.407Z,20.57
2018-11-02T15:00:19.066Z,21.20
2018-11-02T15:02:45.869Z,19.67
2018-11-02T15:05:12.576Z,22.33
2018-11-02T15:07:39.322Z,19.90
2018-11-02T15:10:06.888Z,18.73
2018-11-02T15:12:34.308Z,19.13
2018-11-02T15:15:00.947Z,18.00
2018-11-02T15:17:27.767Z,20.00
2018-11-02T15:19:54.602Z,19.73
2018-11-02T15:22:21.299Z,19.80
2018-11-02T15:24:48.807Z,20.67
2018-11-02T15:27:15.465Z,17.30
2018-11-02T15:29:42.144Z,17.70
2018-11-02T15:32:08.981Z,20.17
2018-11-02T15:34:36.684Z,17.83
2018-11-02T15:37:03.926Z,20.67
2018-11-02T15:39:31.164Z,19.40
2018-11-02T15:41:58.527Z,17.43
2018-11-02T15:44:25.701Z,18.67
2018-11-02T15:46:52.982Z,18.87
2018-11-02T15:49:20.760Z,20.10
2018-11-02T15:51:47.918Z,19.07
2018-11-02T15:54:15.870Z,19.53
2018-11-02T15:56:42.967Z,17.07
2018-11-02T15:59:12.523Z,16.47
2018-11-02T16:01:40.008Z,17.37
2018-11-02T16:04:07.536Z,17.67
2018-11-02T16:06:35.252Z,19.47
2018-11-02T16:09:02.084Z,16.60
2018-11-02T16:11:29.006Z,16.80
2018-11-02T16:13:57.636Z,20.00
2018-11-02T16:16:24.577Z,17.97
2018-11-02T16:18:51.710Z,16.77
2018-11-02T16:21:20.087Z,16.43
2018-11-02T16:23:46.863Z,17.23
2018-11-02T16:26:13.769Z,16.70
2018-11-02T16:28:42.765Z,16.47
2018-11-02T16:31:10.776Z,17.10
2018-11-02T16:33:38.570Z,17.53
2018-11-02T16:36:05.776Z,18.03
2018-11-02T16:38:32.913Z,19.87
2018-11-02T16:41:01.231Z,15.17
2018-11-02T16:43:28.982Z,16.63
2018-11-02T16:45:56.613Z,18.33
2018-11-02T16:48:24.932Z,17.50
2018-11-02T16:50:52.164Z,15.00
2018-11-02T16:53:20.983Z,19.00
2018-11-02T16:55:48.741Z,17.00
2018-11-02T16:58:15.598Z,18.93
2018-11-02T17:00:43.037Z,15.60
2018-11-02T17:03:09.789Z,18.10
2018-11-02T17:05:36.521Z,17.53
2018-11-02T17:08:03.217Z,19.37
2018-11-02T17:10:29.901Z,17.13
2018-11-02T17:12:56.718Z,15.67
2018-11-02T17:15:23.384Z,16.13
2018-11-02T17:17:50.098Z,16.93
2018-11-02T17:20:16.908Z,16.33
2018-11-02T17:22:43.616Z,21.07
2018-11-02T17:25:10.309Z,16.77
2018-11-02T17:27:37.147Z,18.53
2018-11-02T17:30:03.892Z,18.27
2018-11-02T17:32:30.560Z,17.93
2018-11-02T17:34:57.279Z,20.83
2018-11-02T17:37:24.006Z,17.47
2018-11-02T17:39:51.485Z,17.97
2018-11-02T17:42:18.266Z,22.30
2018-11-02T17:44:45.473Z,20.73
2018-11-02T17:47:12.930Z,23.30
2018-11-02T17:49:39.878Z,23.20
2018-11-02T17:52:06.803Z,22.60
2018-11-02T17:54:34.134Z,25.03
2018-11-02T17:57:02.072Z,24.93
2018-11-02T17:59:29.606Z,22.83
2018-11-02T18:01:56.810Z,25.07
2018-11-02T18:04:24.722Z,23.37
2018-11-02T18:06:51.605Z,22.63
2018-11-02T18:09:19.434Z,21.60
2018-11-02T18:11:46.905Z,23.83
2018-11-02T18:14:14.649Z,21.03
2018-11-02T18:16:42.618Z,24.40
2018-11-02T18:19:09.428Z,20.43
2018-11-02T18:21:36.427Z,19.60
2018-11-02T18:24:03.966Z,21.53
2018-11-02T18:26:31.835Z,21.53
2018-11-02T18:28:59.092Z,19.27
2018-11-02T18:31:26.842Z,20.83
2018-11-02T18:33:53.905Z,18.67
2018-11-02T18:36:21.644Z,21.90
2018-11-02T18:38:48.550Z,21.17
2018-11-02T18:41:15.994Z,20.00
2018-11-02T18:43:43.519Z,20.17
2018-11-02T18:46:11.013Z,19.73
2018-11-02T18:48:38.261Z,23.63
2018-11-02T18:51:05.483Z,18.20
2018-11-02T18:53:34.487Z,21.03
2018-11-02T18:56:03.132Z,20.60
2018-11-02T18:58:31.298Z,17.03
2018-11-02T19:00:59.043Z,17.57
2018-11-02T19:03:26.620Z,18.27
2018-11-02T19:05:54.633Z,15.43
2018-11-02T19:08:22.239Z,15.33
2018-11-02T19:10:49.071Z,15.27
2018-11-02T19:13:16.170Z,16.57
2018-11-02T19:15:43.793Z,14.33
2018-11-02T19:18:10.892Z,14.40
2018-11-02T19:20:37.954Z,13.53
2018-11-02T19:23:05.682Z,13.30
2018-11-02T19:25:33.680Z,13.30
2018-11-02T19:28:00.980Z,12.67
2018-11-02T19:30:28.546Z,11.47
2018-11-02T19:32:56.460Z,11.90
2018-11-02T19:35:24.071Z,11.63
2018-11-02T19:37:51.655Z,11.00
2018-11-02T19:40:19.181Z,10.13
2018-11-02T19:42:46.329Z,13.60
2018-11-02T19:45:13.674Z,10.17
2018-11-02T19:47:42.135Z,9.70
2018-11-02T19:50:09.217Z,9.27
2018-11-02T19:52:37.071Z,11.93
2018-11-02T19:55:04.459Z,9.67
2018-11-02T19:57:34.361Z,9.57
2018-11-02T20:00:02.411Z,9.50
2018-11-02T20:02:30.027Z,8.97
2018-11-02T20:04:56.820Z,10.13
2018-11-02T20:07:24.000Z,8.83
2018-11-02T20:09:51.828Z,9.73
2018-11-02T20:12:19.403Z,9.23
2018-11-02T20:14:46.801Z,8.93
2018-11-02T20:17:13.557Z,9.43
2018-11-02T20:19:40.244Z,8.57
2018-11-02T20:22:07.706Z,8.20
2018-11-02T20:24:35.102Z,8.73
2018-11-02T20:27:02.609Z,9.33
2018-11-02T20:29:30.297Z,8.40
2018-11-02T20:31:57.139Z,7.90
2018-11-02T20:34:24.605Z,8.07
2018-11-02T20:36:51.508Z,7.03
2018-11-02T20:39:18.227Z,7.80
2018-11-02T20:41:44.980Z,7.57
2018-11-02T20:44:11.857Z,7.90
2018-11-02T20:46:38.571Z,8.00
2018-11-02T20:49:06.071Z,7.50
2018-11-02T20:51:33.425Z,7.57
2018-11-02T20:54:00.475Z,7.93
2018-11-02T20:56:29.889Z,8.37
2018-11-02T20:58:57.859Z,7.10
2018-11-02T21:01:24.784Z,7.17
2018-11-02T21:03:52.117Z,8.10
2018-11-02T21:06:20.105Z,7.60
2018-11-02T21:08:47.395Z,6.63
2018-11-02T21:11:15.160Z,7.87
2018-11-02T21:13:41.992Z,7.10
2018-11-02T21:16:09.111Z,6.87
2018-11-02T21:18:36.418Z,7.93
2018-11-02T21:21:03.479Z,7.37
2018-11-02T21:23:30.546Z,7.30
2018-11-02T21:25:58.351Z,6.87
2018-11-02T21:28:27.145Z,7.97
2018-11-02T21:30:55.571Z,6.67
2018-11-02T21:33:23.349Z,7.00
2018-11-02T21:35:50.490Z,7.13
2018-11-02T21:38:17.906Z,6.93
2018-11-02T21:40:44.987Z,7.63
2018-11-02T21:43:12.129Z,7.97
2018-11-02T21:45:40.597Z,7.47
2018-11-02T21:48:08.848Z,7.60
2018-11-02T21:50:35.718Z,6.60
2018-11-02T21:53:03.004Z,8.43
2018-11-02T21:55:29.782Z,6.93
2018-11-02T21:57:56.548Z,7.63
2018-11-02T22:03:21.887Z,8.80
2018-11-02T22:05:49.151Z,8.63
2018-11-02T22:08:16.838Z,8.80
2018-11-02T22:10:43.800Z,7.73
2018-11-02T22:13:11.625Z,8.80
2018-11-02T22:15:40.244Z,8.50
2018-11-02T22:18:07.794Z,7.90
2018-11-02T22:20:35.123Z,8.50
2018-11-02T22:23:03.188Z,9.53
2018-11-02T22:25:31.496Z,8.27
2018-11-02T22:28:00.746Z,8.53
2018-11-02T22:30:27.933Z,8.57
2018-11-02T22:32:55.624Z,8.60
2018-11-02T22:35:23.713Z,8.47
2018-11-02T22:37:51.133Z,8.33
2018-11-02T22:40:18.016Z,7.80
2018-11-02T22:42:45.400Z,8.33
2018-11-02T22:45:13.744Z,9.13
2018-11-02T22:47:41.165Z,8.30
2018-11-02T22:50:09.216Z,8.27
2018-11-02T22:52:37.740Z,8.63
2018-11-02T22:55:07.974Z,8.60
2018-11-02T22:57:35.364Z,8.80
2018-11-02T23:00:02.255Z,9.00
2018-11-02T23:02:29.225Z,9.67
2018-11-02T23:04:56.845Z,8.77
2018-11-02T23:07:24.485Z,9.23
2018-11-02T23:09:51.600Z,9.07
2018-11-02T23:12:18.498Z,9.63
2018-11-02T23:14:45.905Z,8.67
2018-11-02T23:17:12.856Z,9.07
2018-11-02T23:19:40.256Z,8.87
2018-11-02T23:22:07.928Z,9.53
2018-11-02T23:24:35.163Z,9.47
2018-11-02T23:27:02.945Z,10.20
2018-11-02T23:29:29.793Z,9.13
2018-11-02T23:31:57.254Z,9.93
2018-11-02T23:34:23.936Z,9.60
2018-11-02T23:36:51.342Z,8.77
2018-11-02T23:39:19.337Z,8.93
2018-11-02T23:41:46.272Z,9.03
2018-11-02T23:44:14.451Z,9.43
2018-11-02T23:46:41.331Z,9.40
2018-11-02T23:49:08.764Z,9.30
2018-11-02T23:51:36.365Z,9.60
2018-11-02T23:54:03.313Z,8.83
2018-11-02T23:56:31.043Z,8.87
2018-11-02T23:58:58.307Z,9.10
